Time;durP1;ratioP1;P1;durP2;ratioP2;P2;SDS_P1;SDS_P2;PMS_P1;PMS_P2;Temp;Humidity;BMP_temperature;BMP_pressure;BME280_temperature;BME280_humidity;BME280_pressure;Samples;Min_cycle;Max_cycle;Signal;HPM_P1;HPM_P2
2021/10/09 04:31:16;;;;;;;26.23;18.07;;;4.90;99.90;;;;;;5659840;23;20542;-75
2021/10/09 04:33:41;;;;;;;24.97;16.10;;;4.90;99.90;;;;;;4931820;29;20877;-78
2021/10/09 04:36:08;;;;;;;24.63;15.70;;;4.80;99.90;;;;;;4936488;29;20554;-78
2021/10/09 04:38:34;;;;;;;27.90;16.00;;;4.80;99.90;;;;;;4936847;29;20207;-77
2021/10/09 04:41:00;;;;;;;32.93;16.40;;;4.80;99.90;;;;;;4937252;29;20439;-79
2021/10/09 04:43:26;;;;;;;26.83;16.73;;;4.80;99.90;;;;;;4937150;29;20479;-79
2021/10/09 04:45:51;;;;;;;24.37;16.50;;;4.80;99.90;;;;;;4937021;29;20190;-78
2021/10/09 04:48:17;;;;;;;32.03;18.27;;;4.70;99.90;;;;;;4937008;29;20208;-78
2021/10/09 04:50:42;;;;;;;28.57;15.80;;;4.70;99.90;;;;;;4937061;29;20172;-78
2021/10/09 04:53:08;;;;;;;26.50;16.57;;;4.70;99.90;;;;;;4937184;29;20182;-78
2021/10/09 04:55:33;;;;;;;28.10;15.70;;;4.70;99.90;;;;;;4936982;29;20550;-78
2021/10/09 04:57:59;;;;;;;24.87;16.33;;;4.60;99.90;;;;;;4937230;29;20191;-78
2021/10/09 05:00:24;;;;;;;23.80;17.00;;;4.60;99.90;;;;;;4936803;29;20189;-77
2021/10/09 05:02:50;;;;;;;23.20;14.60;;;4.60;99.90;;;;;;4936561;29;20204;-78
2021/10/09 05:05:15;;;;;;;27.03;16.80;;;4.60;99.90;;;;;;4937040;29;20247;-78
2021/10/09 05:07:41;;;;;;;31.77;17.03;;;4.60;99.90;;;;;;4936374;29;20219;-78
2021/10/09 05:10:08;;;;;;;25.87;15.80;;;4.60;99.90;;;;;;4936456;29;20177;-78
2021/10/09 05:12:35;;;;;;;32.53;16.30;;;4.60;99.90;;;;;;4936061;29;20278;-78
2021/10/09 05:15:00;;;;;;;23.33;14.77;;;4.60;99.90;;;;;;4936485;29;20802;-78
2021/10/09 05:17:26;;;;;;;23.93;15.83;;;4.50;99.90;;;;;;4934755;29;20416;-77
2021/10/09 05:19:51;;;;;;;28.30;15.77;;;4.50;99.90;;;;;;4936423;29;20268;-78
2021/10/09 05:22:17;;;;;;;29.37;14.83;;;4.50;99.90;;;;;;4935957;29;20206;-78
2021/10/09 05:24:42;;;;;;;29.20;16.67;;;4.40;99.90;;;;;;4936746;29;20235;-78
2021/10/09 05:27:08;;;;;;;24.17;16.17;;;4.40;99.90;;;;;;4936231;29;20212;-79
2021/10/09 05:29:33;;;;;;;26.73;15.90;;;4.40;99.90;;;;;;4936450;29;20294;-78
2021/10/09 05:32:06;;;;;;;23.10;14.70;;;4.40;99.90;;;;;;4935633;29;20224;-78
2021/10/09 05:34:32;;;;;;;24.70;16.60;;;4.40;99.90;;;;;;4936716;29;20195;-79
2021/10/09 05:36:58;;;;;;;23.20;16.10;;;4.40;99.90;;;;;;4935872;29;20409;-78
2021/10/09 05:39:24;;;;;;;29.17;15.87;;;4.40;99.90;;;;;;4936103;29;20635;-78
2021/10/09 05:41:50;;;;;;;27.60;16.10;;;4.30;99.90;;;;;;4935621;29;20459;-78
2021/10/09 05:44:16;;;;;;;30.00;15.30;;;4.40;99.90;;;;;;4935598;29;20180;-78
2021/10/09 05:46:41;;;;;;;19.80;13.83;;;4.40;99.90;;;;;;4935877;29;20225;-78
2021/10/09 05:49:07;;;;;;;23.23;15.40;;;4.40;99.90;;;;;;4935369;29;20310;-78
2021/10/09 05:51:39;;;;;;;21.30;15.60;;;4.30;99.90;;;;;;4935739;29;20274;-78
2021/10/09 05:54:19;;;;;;;26.30;15.40;;;4.40;99.90;;;;;;4938305;29;20887;-79
2021/10/09 06:44:02;;;;;;;20.53;12.93;;;7.30;99.90;;;;;;4934830;29;20553;-77
2021/10/09 06:49:13;;;;;;;14.70;11.63;;;10.00;99.90;;;;;;4934731;29;20412;-77
2021/10/09 06:59:51;;;;;;;13.43;11.10;;;15.00;99.90;;;;;;4934869;29;20432;-79
2021/10/09 07:02:16;;;;;;;14.40;12.00;;;15.60;99.90;;;;;;4934263;29;20547;-78
2021/10/09 07:04:42;;;;;;;16.00;12.00;;;16.00;99.90;;;;;;4934510;29;20178;-78
2021/10/09 07:07:09;;;;;;;16.43;12.03;;;16.60;99.90;;;;;;4934145;29;20180;-78
2021/10/09 07:09:34;;;;;;;16.63;12.87;;;16.80;99.90;;;;;;4934157;29;20221;-78
2021/10/09 07:12:00;;;;;;;16.10;11.37;;;17.00;99.90;;;;;;4934565;29;20433;-78
2021/10/09 07:14:25;;;;;;;19.37;12.27;;;17.30;99.90;;;;;;4934243;29;20605;-78
2021/10/09 07:16:51;;;;;;;14.27;12.50;;;17.20;99.90;;;;;;4934230;29;20767;-78
2021/10/09 07:19:17;;;;;;;19.67;12.80;;;17.40;99.90;;;;;;4934282;29;20265;-78
2021/10/09 07:21:42;;;;;;;17.10;13.20;;;17.70;99.90;;;;;;4934347;29;20212;-79
2021/10/09 07:24:08;;;;;;;19.30;12.63;;;17.60;99.90;;;;;;4934570;29;20573;-76
2021/10/09 07:26:34;;;;;;;18.17;12.73;;;17.30;99.90;;;;;;4934045;29;20180;-76
2021/10/09 07:29:00;;;;;;;21.80;14.33;;;16.90;99.90;;;;;;4934230;29;20173;-77
2021/10/09 07:31:26;;;;;;;20.43;14.17;;;16.50;99.90;;;;;;4933784;29;20586;-77
2021/10/09 07:33:52;;;;;;;18.67;13.77;;;15.90;99.90;;;;;;4934045;29;20555;-77
2021/10/09 07:36:17;;;;;;;21.40;13.30;;;15.70;99.90;;;;;;4933906;29;20427;-77
2021/10/09 07:38:44;;;;;;;17.00;14.10;;;15.30;99.90;;;;;;4933865;29;20216;-77
2021/10/09 07:41:10;;;;;;;20.03;14.63;;;15.00;99.90;;;;;;4935663;29;20203;-76
2021/10/09 07:43:36;;;;;;;20.40;14.33;;;15.10;99.90;;;;;;4937614;29;20478;-77
2021/10/09 07:46:02;;;;;;;19.30;13.60;;;15.10;99.90;;;;;;4937681;29;20424;-77
2021/10/09 07:48:27;;;;;;;19.73;14.03;;;14.90;99.90;;;;;;4937637;29;20174;-77
2021/10/09 07:50:55;;;;;;;20.80;15.60;;;15.00;99.90;;;;;;4937780;29;20272;-77
2021/10/09 07:53:21;;;;;;;38.03;15.97;;;14.90;99.90;;;;;;4937398;29;20216;-78
2021/10/09 07:55:47;;;;;;;17.93;14.27;;;15.00;99.90;;;;;;4937685;29;20864;-78
2021/10/09 07:58:12;;;;;;;23.10;15.40;;;15.00;99.90;;;;;;4937639;29;20174;-78
2021/10/09 08:00:39;;;;;;;21.77;14.60;;;15.20;99.90;;;;;;4937638;29;20417;-78
2021/10/09 08:03:04;;;;;;;23.50;13.20;;;15.30;99.90;;;;;;4937577;29;20229;-78
2021/10/09 08:05:30;;;;;;;17.97;13.73;;;15.50;99.90;;;;;;4937336;29;20459;-78
2021/10/09 08:07:55;;;;;;;25.13;15.03;;;15.60;99.90;;;;;;4937280;29;20319;-77
2021/10/09 08:10:21;;;;;;;27.93;14.30;;;15.80;99.90;;;;;;4937430;29;20650;-78
2021/10/09 08:12:47;;;;;;;18.10;13.27;;;16.00;99.90;;;;;;4937169;29;20232;-78
2021/10/09 08:15:12;;;;;;;16.37;13.50;;;16.10;99.90;;;;;;4937388;29;20185;-78
2021/10/09 08:17:38;;;;;;;18.60;12.30;;;16.30;99.90;;;;;;4937097;29;20642;-78
2021/10/09 08:20:06;;;;;;;21.07;14.60;;;16.50;99.90;;;;;;4937270;29;20262;-78
2021/10/09 08:22:34;;;;;;;20.33;13.67;;;16.60;99.90;;;;;;4936636;29;20464;-78
2021/10/09 08:35:34;;;;;;;25.43;14.07;;;16.80;99.90;;;;;;4936859;29;20475;-78
2021/10/09 08:40:45;;;;;;;22.63;15.47;;;16.40;99.90;;;;;;4936991;29;20428;-78
2021/10/09 08:43:10;;;;;;;19.07;14.17;;;16.80;99.90;;;;;;4936731;29;20487;-79
2021/10/09 08:45:36;;;;;;;18.27;14.30;;;17.00;99.90;;;;;;4936659;29;20795;-79
2021/10/09 08:48:02;;;;;;;23.40;14.97;;;17.00;99.90;;;;;;4936552;29;20180;-79
2021/10/09 08:50:27;;;;;;;18.77;15.13;;;17.00;99.90;;;;;;4935340;29;20223;-78
2021/10/09 08:53:09;;;;;;;22.67;15.00;;;17.10;99.90;;;;;;4935031;29;20174;-79
2021/10/09 08:55:37;;;;;;;20.00;14.23;;;17.10;99.90;;;;;;4936330;29;20177;-79
2021/10/09 08:58:05;;;;;;;22.07;15.07;;;16.90;99.90;;;;;;4936388;29;20417;-78
2021/10/09 09:00:58;;;;;;;22.03;15.67;;;17.10;99.90;;;;;;4936477;29;20421;-79
2021/10/09 09:03:32;;;;;;;25.87;15.50;;;16.90;99.90;;;;;;4936444;29;20457;-78
2021/10/09 09:06:22;;;;;;;21.97;15.50;;;16.80;99.90;;;;;;4936404;29;20421;-78
2021/10/09 09:41:13;;;;;;;22.40;14.70;;;18.20;99.90;;;;;;4935769;29;20437;-78
2021/10/09 09:43:43;;;;;;;20.07;14.80;;;18.30;99.90;;;;;;4935423;29;21027;-79
2021/10/09 09:46:10;;;;;;;25.13;13.87;;;18.60;99.90;;;;;;4936065;29;20927;-78
2021/10/09 09:48:36;;;;;;;17.50;13.60;;;18.90;99.90;;;;;;4935417;29;20484;-78
2021/10/09 09:51:02;;;;;;;19.90;15.10;;;19.20;99.90;;;;;;4932673;29;20457;-78
2021/10/09 09:53:28;;;;;;;23.13;14.77;;;19.10;99.90;;;;;;4924662;29;20493;-79
2021/10/09 09:55:54;;;;;;;19.23;13.83;;;19.40;99.90;;;;;;4916814;29;20182;-79
2021/10/09 09:58:24;;;;;;;18.07;14.27;;;19.60;99.90;;;;;;4916602;29;20174;-80
2021/10/09 10:00:56;;;;;;;16.20;13.00;;;19.80;99.90;;;;;;4916486;29;20446;-77
2021/10/09 10:03:24;;;;;;;24.27;16.53;;;19.90;99.90;;;;;;4915623;29;20462;-79
2021/10/09 10:05:51;;;;;;;21.20;12.33;;;19.50;99.90;;;;;;4916475;29;20414;-79
2021/10/09 10:08:17;;;;;;;21.83;13.60;;;20.00;99.90;;;;;;4916712;29;20414;-79
2021/10/09 10:10:43;;;;;;;21.60;14.50;;;20.10;99.90;;;;;;4917094;29;20433;-79
2021/10/09 10:13:09;;;;;;;18.50;12.90;;;19.70;99.90;;;;;;4916859;29;20422;-78
2021/10/09 10:15:35;;;;;;;17.93;12.90;;;20.00;99.90;;;;;;4916951;29;20196;-79
2021/10/09 10:18:00;;;;;;;15.20;12.10;;;20.20;99.90;;;;;;4917430;29;20186;-78
2021/10/09 10:20:49;;;;;;;15.03;13.10;;;20.30;99.90;;;;;;4917148;29;20182;-78
2021/10/09 10:23:33;;;;;;;17.87;12.33;;;20.30;99.90;;;;;;4917071;29;20216;-79
2021/10/09 10:26:27;;;;;;;19.63;11.60;;;20.50;99.90;;;;;;4917737;29;20840;-79
2021/10/09 10:28:53;;;;;;;20.95;12.80;;;20.60;99.90;;;;;;4918379;29;20414;-80
2021/10/09 10:31:20;;;;;;;16.17;12.10;;;20.50;99.90;;;;;;4918007;29;20581;-79
2021/10/09 10:33:59;;;;;;;15.87;12.50;;;20.10;99.90;;;;;;4917785;29;20177;-79
2021/10/09 10:36:35;;;;;;;21.70;12.63;;;20.30;99.90;;;;;;4917062;29;20489;-79
2021/10/09 10:39:01;;;;;;;13.77;12.37;;;20.10;99.90;;;;;;4914865;29;20432;-80
2021/10/09 10:41:55;;;;;;;19.27;13.17;;;19.90;99.90;;;;;;4917700;29;20489;-79
2021/10/09 10:44:54;;;;;;;14.70;12.90;;;20.10;99.90;;;;;;4917617;29;21189;-80
2021/10/09 10:47:44;;;;;;;19.30;11.43;;;20.30;99.90;;;;;;4917015;29;20430;-81
2021/10/09 10:57:00;;;;;;;17.40;12.70;;;20.40;99.90;;;;;;4857499;29;20432;-78
2021/10/09 10:59:33;;;;;;;19.93;13.47;;;20.50;99.90;;;;;;4907351;29;20895;-78
2021/10/09 11:02:14;;;;;;;18.43;13.77;;;20.50;99.90;;;;;;4916118;29;21093;-79
2021/10/09 11:04:52;;;;;;;18.93;12.53;;;20.40;99.90;;;;;;4916154;29;20453;-78
2021/10/09 11:07:19;;;;;;;18.67;13.77;;;20.10;99.90;;;;;;4916080;29;20916;-79
2021/10/09 11:09:45;;;;;;;18.60;12.60;;;20.10;99.90;;;;;;4916008;29;20422;-79
2021/10/09 11:12:25;;;;;;;17.40;12.73;;;20.00;99.90;;;;;;4915423;29;20898;-79
2021/10/09 11:14:59;;;;;;;17.43;13.80;;;20.10;99.90;;;;;;4917285;29;20422;-79
2021/10/09 11:17:34;;;;;;;17.13;11.63;;;20.00;99.90;;;;;;4919440;29;20421;-80
2021/10/09 11:20:01;;;;;;;20.47;11.53;;;20.10;99.90;;;;;;4919712;29;20818;-78
2021/10/09 11:22:48;;;;;;;16.67;10.77;;;20.10;99.90;;;;;;4919227;29;20552;-77
2021/10/09 11:25:42;;;;;;;16.10;10.83;;;19.80;99.90;;;;;;4919368;29;20415;-76
2021/10/09 11:28:28;;;;;;;15.70;9.70;;;19.60;99.90;;;;;;4916749;29;20430;-77
2021/10/09 11:30:55;;;;;;;15.10;10.20;;;19.70;99.90;;;;;;4919059;29;20426;-77
2021/10/09 11:33:25;;;;;;;13.53;10.03;;;19.70;99.90;;;;;;4918959;29;20457;-77
2021/10/09 11:35:52;;;;;;;13.70;9.97;;;19.60;99.90;;;;;;4918325;29;20426;-78
2021/10/09 11:38:28;;;;;;;13.13;10.33;;;19.60;99.90;;;;;;4918829;29;20445;-78
2021/10/09 11:41:09;;;;;;;15.67;11.07;;;19.60;99.90;;;;;;4919097;29;20437;-77
2021/10/09 11:44:03;;;;;;;13.43;10.37;;;19.50;99.90;;;;;;4918729;29;20822;-77
2021/10/09 11:47:07;;;;;;;16.47;11.23;;;19.30;99.90;;;;;;4918759;29;20464;-76
2021/10/09 11:55:17;;;;;;;16.97;10.17;;;19.00;99.90;;;;;;4919025;29;20410;-76
2021/10/09 11:57:43;;;;;;;13.03;10.37;;;19.00;99.90;;;;;;4918386;29;20422;-76
2021/10/09 12:00:27;;;;;;;15.57;9.70;;;18.90;99.90;;;;;;4918599;29;20461;-76
2021/10/09 12:02:53;;;;;;;19.63;10.17;;;18.60;99.90;;;;;;4918536;29;20695;-76
2021/10/09 12:05:19;;;;;;;12.10;10.33;;;18.70;99.90;;;;;;4918495;29;20877;-76
2021/10/09 12:08:14;;;;;;;14.17;10.50;;;18.60;99.90;;;;;;4918252;29;20522;-76
2021/10/09 12:10:40;;;;;;;14.90;10.30;;;18.50;99.90;;;;;;4918375;29;20759;-76
2021/10/09 12:13:06;;;;;;;17.67;9.63;;;18.20;99.90;;;;;;4918466;29;20804;-76
2021/10/09 12:15:36;;;;;;;11.93;9.60;;;18.10;99.90;;;;;;4918115;29;20426;-75
2021/10/09 12:18:02;;;;;;;14.50;9.40;;;18.20;99.90;;;;;;4917953;29;20237;-75
2021/10/09 12:20:29;;;;;;;15.00;9.77;;;18.30;99.90;;;;;;4918285;29;20406;-75
2021/10/09 12:22:58;;;;;;;12.67;9.30;;;18.20;99.90;;;;;;4918188;29;20907;-75
2021/10/09 12:25:28;;;;;;;19.40;10.40;;;18.30;99.90;;;;;;4918050;29;20418;-75
2021/10/09 12:27:58;;;;;;;11.80;9.00;;;18.20;99.90;;;;;;4917321;29;20954;-77
2021/10/09 12:30:47;;;;;;;16.63;9.03;;;18.10;99.90;;;;;;4936580;29;20414;-75
2021/10/09 12:33:38;;;;;;;17.07;10.20;;;18.10;99.90;;;;;;4936958;29;20520;-76
2021/10/09 12:36:37;;;;;;;13.20;9.50;;;18.10;99.90;;;;;;4936909;29;20413;-77
2021/10/09 12:39:22;;;;;;;15.40;10.50;;;17.90;99.90;;;;;;4936804;29;20510;-79
2021/10/09 12:41:53;;;;;;;16.87;9.60;;;17.90;99.90;;;;;;4938013;29;20436;-80
2021/10/09 12:44:20;;;;;;;12.93;8.90;;;18.00;99.90;;;;;;4936945;29;20410;-78
2021/10/09 12:46:46;;;;;;;17.40;10.60;;;18.00;99.90;;;;;;4936930;29;20421;-79
2021/10/09 12:49:11;;;;;;;13.27;9.40;;;18.00;99.90;;;;;;4937423;29;20436;-79
2021/10/09 12:51:37;;;;;;;16.73;10.97;;;17.90;99.90;;;;;;4936965;29;20417;-79
2021/10/09 12:54:06;;;;;;;10.37;8.63;;;17.90;99.90;;;;;;4937508;29;20417;-78
2021/10/09 12:56:32;;;;;;;14.40;10.60;;;17.80;99.90;;;;;;4936867;29;20797;-79
2021/10/09 12:58:58;;;;;;;11.87;8.73;;;17.70;99.90;;;;;;4936540;29;20504;-79
2021/10/09 13:01:23;;;;;;;18.23;9.70;;;17.70;99.90;;;;;;4936782;29;20844;-76
2021/10/09 13:03:49;;;;;;;11.73;8.70;;;17.70;99.90;;;;;;4936292;29;20212;-76
2021/10/09 13:06:14;;;;;;;10.43;8.50;;;17.60;99.90;;;;;;4936117;29;20173;-76
2021/10/09 13:08:40;;;;;;;10.10;8.67;;;17.60;99.90;;;;;;4936434;29;20187;-77
2021/10/09 13:11:05;;;;;;;10.37;8.00;;;17.70;99.90;;;;;;4936414;29;20272;-76
2021/10/09 13:13:31;;;;;;;10.40;8.50;;;17.70;99.90;;;;;;4936166;29;20192;-78
2021/10/09 13:15:56;;;;;;;11.37;8.87;;;17.60;99.90;;;;;;4936935;29;20170;-78
2021/10/09 13:18:22;;;;;;;11.00;9.17;;;17.70;99.90;;;;;;4936418;29;20189;-79
2021/10/09 13:20:47;;;;;;;10.20;9.10;;;17.50;99.90;;;;;;4936796;29;20201;-79
2021/10/09 13:23:12;;;;;;;13.83;9.00;;;17.50;99.90;;;;;;4936549;29;20217;-78
2021/10/09 13:25:40;;;;;;;13.90;8.63;;;17.60;99.90;;;;;;4936585;29;20181;-78
2021/10/09 13:28:06;;;;;;;11.83;9.37;;;17.60;99.90;;;;;;4934679;29;20674;-77
2021/10/09 13:30:32;;;;;;;11.30;8.23;;;17.50;99.90;;;;;;4935986;29;20413;-77
2021/10/09 13:32:57;;;;;;;11.13;9.47;;;17.40;99.90;;;;;;4935942;29;20444;-77
2021/10/09 13:35:23;;;;;;;18.40;9.97;;;17.40;99.90;;;;;;4936002;29;20428;-77
2021/10/09 13:37:56;;;;;;;14.83;9.20;;;17.30;99.90;;;;;;4935240;29;20670;-78
2021/10/09 13:40:21;;;;;;;9.83;8.80;;;17.20;99.90;;;;;;4935702;29;20593;-79
2021/10/09 13:42:47;;;;;;;15.47;9.83;;;17.20;99.90;;;;;;4935693;29;20524;-78
2021/10/09 13:45:13;;;;;;;13.93;8.30;;;17.00;99.90;;;;;;4935880;29;20208;-77
2021/10/09 13:47:40;;;;;;;10.93;8.40;;;17.00;99.90;;;;;;4936429;29;20410;-77
2021/10/09 13:50:06;;;;;;;16.70;8.50;;;17.00;99.90;;;;;;4936126;29;20177;-76
2021/10/09 13:52:32;;;;;;;12.00;8.50;;;17.00;99.90;;;;;;4935416;29;20554;-77
2021/10/09 13:54:57;;;;;;;13.40;9.13;;;17.00;99.90;;;;;;4935640;29;20560;-77
2021/10/09 13:57:23;;;;;;;10.67;9.17;;;16.90;99.90;;;;;;4935745;29;20182;-80
2021/10/09 13:59:48;;;;;;;11.00;9.13;;;16.90;99.90;;;;;;4934330;29;20185;-78
2021/10/09 14:02:14;;;;;;;16.10;8.77;;;16.80;99.90;;;;;;4935112;29;20227;-77
2021/10/09 14:04:40;;;;;;;14.37;10.13;;;16.80;99.90;;;;;;4935539;29;20670;-78
2021/10/09 14:07:06;;;;;;;14.03;9.77;;;16.80;99.90;;;;;;4935258;29;20228;-78
2021/10/09 14:09:32;;;;;;;11.93;8.70;;;16.80;99.90;;;;;;4935364;29;20717;-78
2021/10/09 14:11:58;;;;;;;10.90;8.30;;;16.80;99.90;;;;;;4935505;29;20445;-78
2021/10/09 14:14:27;;;;;;;12.20;8.83;;;16.90;99.90;;;;;;4934967;29;20937;-77
2021/10/09 14:16:53;;;;;;;13.40;7.53;;;16.80;99.90;;;;;;4935542;29;20418;-77
2021/10/09 14:19:19;;;;;;;17.70;9.00;;;16.80;99.90;;;;;;4935369;29;20773;-77
2021/10/09 14:21:44;;;;;;;12.27;9.50;;;16.80;99.90;;;;;;4934915;29;20492;-77
2021/10/09 14:24:10;;;;;;;16.03;10.13;;;16.80;99.90;;;;;;4934717;29;20270;-76
2021/10/09 14:26:36;;;;;;;14.43;9.80;;;16.70;99.90;;;;;;4934375;29;20181;-77
2021/10/09 14:29:02;;;;;;;12.03;8.63;;;16.70;99.90;;;;;;4935387;29;20249;-76
2021/10/09 14:31:27;;;;;;;11.20;8.33;;;16.70;99.90;;;;;;4934935;29;20706;-77
2021/10/09 14:33:53;;;;;;;13.80;9.30;;;16.60;99.90;;;;;;4935015;29;20480;-77
2021/10/09 14:36:18;;;;;;;15.40;9.70;;;16.60;99.90;;;;;;4935216;29;20275;-76
2021/10/09 14:38:44;;;;;;;17.63;9.57;;;16.60;99.90;;;;;;4935225;29;20252;-76
2021/10/09 14:41:09;;;;;;;12.30;9.03;;;16.50;99.90;;;;;;4934976;29;20630;-77
2021/10/09 14:43:36;;;;;;;17.73;8.20;;;16.50;99.90;;;;;;4935055;29;20275;-77
2021/10/09 14:46:34;;;;;;;14.67;8.23;;;16.50;99.90;;;;;;4935056;29;20178;-77
2021/10/09 14:48:55;;;;;;;17.57;8.33;;;16.50;99.90;;;;;;4934893;29;20790;-76
2021/10/09 14:54:07;;;;;;;10.03;7.83;;;16.40;99.90;;;;;;4934869;29;20428;-76
2021/10/09 15:02:19;;;;;;;11.60;8.40;;;16.40;99.90;;;;;;4934270;29;20472;-76
2021/10/09 15:18:26;;;;;;;13.57;8.80;;;16.20;99.90;;;;;;4935780;29;20773;-77
2021/10/09 15:20:53;;;;;;;12.77;9.20;;;16.20;99.90;;;;;;4934820;29;20965;-80
2021/10/09 15:23:19;;;;;;;13.20;9.33;;;16.20;99.90;;;;;;4934349;29;20568;-76
2021/10/09 15:25:46;;;;;;;9.80;7.83;;;16.20;99.90;;;;;;4934149;29;20455;-77
2021/10/09 15:28:13;;;;;;;11.57;8.70;;;16.10;99.90;;;;;;4933919;29;20424;-77
2021/10/09 15:30:39;;;;;;;14.23;8.40;;;16.10;99.90;;;;;;4934084;29;20507;-77
2021/10/09 15:33:05;;;;;;;9.60;8.10;;;16.10;99.90;;;;;;4934163;29;20531;-78
2021/10/09 15:35:32;;;;;;;22.97;9.93;;;16.00;99.90;;;;;;4934049;29;20501;-77
2021/10/09 15:37:58;;;;;;;11.35;8.80;;;16.00;99.90;;;;;;4933954;29;20449;-78
2021/10/09 15:40:24;;;;;;;22.30;11.20;;;16.00;99.90;;;;;;4932620;29;20185;-76
2021/10/09 15:42:50;;;;;;;22.73;11.57;;;15.90;99.90;;;;;;4934031;29;20495;-78
2021/10/09 15:45:19;;;;;;;12.97;10.10;;;15.80;99.90;;;;;;4934182;29;20173;-77
2021/10/09 15:47:50;;;;;;;16.40;11.60;;;15.80;99.90;;;;;;4932524;29;20209;-77
2021/10/09 15:50:17;;;;;;;21.93;10.43;;;15.70;99.90;;;;;;4934221;29;21060;-77
2021/10/09 15:52:42;;;;;;;20.30;9.33;;;15.60;99.90;;;;;;4933891;29;20445;-77
2021/10/09 15:55:11;;;;;;;17.80;10.10;;;15.60;99.90;;;;;;4934151;29;20417;-77
2021/10/09 15:57:37;;;;;;;11.03;9.87;;;15.60;99.90;;;;;;4933621;29;20232;-78
2021/10/09 16:00:05;;;;;;;14.70;10.50;;;15.50;99.90;;;;;;4933896;29;20503;-77
2021/10/09 16:02:30;;;;;;;18.15;10.20;;;15.40;99.90;;;;;;4935551;29;20439;-77
2021/10/09 16:04:56;;;;;;;14.13;11.10;;;15.40;99.90;;;;;;4936602;29;20891;-77
2021/10/09 16:07:21;;;;;;;15.60;11.67;;;15.30;99.90;;;;;;4937150;29;20178;-77
2021/10/09 16:09:47;;;;;;;15.70;10.57;;;15.20;99.90;;;;;;4937481;29;20180;-78
2021/10/09 16:12:12;;;;;;;15.50;11.80;;;15.20;99.90;;;;;;4937398;29;20197;-76
2021/10/09 16:14:38;;;;;;;14.23;10.47;;;15.10;99.90;;;;;;4937404;29;20203;-77
2021/10/09 16:17:03;;;;;;;14.40;10.40;;;15.00;99.90;;;;;;4937277;29;20188;-78
2021/10/09 16:19:29;;;;;;;14.50;10.38;;;14.90;99.90;;;;;;4936885;29;20417;-77
2021/10/09 16:21:54;;;;;;;18.17;11.13;;;14.80;99.90;;;;;;4937240;29;20197;-77
2021/10/09 16:24:21;;;;;;;18.37;12.13;;;14.70;99.90;;;;;;4937063;29;20201;-78
2021/10/09 16:26:46;;;;;;;15.80;11.23;;;14.70;99.90;;;;;;4937235;29;20241;-77
2021/10/09 16:29:12;;;;;;;15.17;11.27;;;14.60;99.90;;;;;;4935857;29;20458;-78
2021/10/09 16:31:38;;;;;;;16.90;10.90;;;14.50;99.90;;;;;;4937177;29;20216;-77
2021/10/09 16:34:05;;;;;;;14.17;10.90;;;14.40;99.90;;;;;;4937227;29;20708;-77
2021/10/09 16:36:34;;;;;;;13.67;12.17;;;14.20;99.90;;;;;;4937099;29;20216;-75
2021/10/09 16:38:59;;;;;;;21.70;13.40;;;14.20;99.90;;;;;;4937049;29;20413;-77
2021/10/09 16:41:25;;;;;;;17.67;12.23;;;14.10;99.90;;;;;;4936944;29;20813;-77
2021/10/09 16:43:50;;;;;;;24.63;13.23;;;14.00;99.90;;;;;;4935738;29;20208;-77
2021/10/09 16:46:16;;;;;;;15.87;12.33;;;13.90;99.90;;;;;;4937531;29;20599;-75
2021/10/09 16:48:42;;;;;;;15.10;12.23;;;13.80;99.90;;;;;;4936573;29;20618;-76
2021/10/09 16:51:07;;;;;;;21.20;13.10;;;13.80;99.90;;;;;;4936975;29;20705;-76
2021/10/09 16:53:33;;;;;;;17.17;11.50;;;13.70;99.90;;;;;;4936780;29;20190;-76
2021/10/09 16:55:58;;;;;;;18.25;13.90;;;13.50;99.90;;;;;;4936040;29;20417;-75
2021/10/09 16:58:24;;;;;;;20.50;12.83;;;13.50;99.90;;;;;;4936542;29;20216;-74
2021/10/09 17:00:49;;;;;;;18.63;13.33;;;13.40;99.90;;;;;;4937118;29;20197;-74
2021/10/09 17:03:15;;;;;;;21.03;15.63;;;13.30;99.90;;;;;;4936825;29;20256;-75
2021/10/09 17:05:41;;;;;;;24.70;15.73;;;13.20;99.90;;;;;;4937310;29;20181;-78
2021/10/09 17:08:06;;;;;;;15.60;12.57;;;13.20;99.90;;;;;;4940292;29;20265;-81
2021/10/09 17:10:32;;;;;;;20.40;12.47;;;13.20;99.90;;;;;;4942427;29;20208;-81
2021/10/09 17:12:58;;;;;;;15.40;11.53;;;13.00;99.90;;;;;;4941948;29;20189;-79
2021/10/09 17:15:23;;;;;;;16.23;12.10;;;13.00;99.90;;;;;;4942247;29;20181;-81
2021/10/09 17:17:49;;;;;;;16.13;12.30;;;12.90;99.90;;;;;;4941557;29;20572;-81
2021/10/09 17:20:14;;;;;;;26.40;12.67;;;12.80;99.90;;;;;;4940154;29;20185;-81
2021/10/09 17:22:40;;;;;;;21.20;13.30;;;12.70;99.90;;;;;;4942042;29;20702;-81
2021/10/09 17:25:06;;;;;;;17.23;12.30;;;12.70;99.90;;;;;;4943863;29;20185;-82
2021/10/09 17:27:32;;;;;;;23.47;16.40;;;12.60;99.90;;;;;;4942835;29;20703;-81
2021/10/09 17:29:58;;;;;;;16.00;11.50;;;12.50;99.90;;;;;;4942727;29;20173;-82
2021/10/09 17:32:23;;;;;;;24.67;12.03;;;12.40;99.90;;;;;;4942470;29;21021;-80
2021/10/09 17:34:49;;;;;;;19.63;12.43;;;12.30;99.90;;;;;;4939027;29;20176;-78
2021/10/09 17:37:14;;;;;;;20.20;12.40;;;12.30;99.90;;;;;;4938226;29;20659;-79
2021/10/09 17:39:40;;;;;;;17.60;11.33;;;12.20;99.90;;;;;;4939963;29;20183;-79
2021/10/09 17:42:05;;;;;;;40.73;12.07;;;12.00;99.90;;;;;;4938516;29;20718;-80
2021/10/09 17:44:31;;;;;;;16.97;11.33;;;12.00;99.90;;;;;;4940212;29;20627;-79
2021/10/09 17:46:57;;;;;;;14.90;11.33;;;11.80;99.90;;;;;;4937669;29;20269;-80
2021/10/09 17:49:22;;;;;;;12.97;10.63;;;11.80;99.90;;;;;;4937345;29;20233;-79
2021/10/09 17:51:51;;;;;;;15.33;11.60;;;11.70;99.90;;;;;;4938365;29;20213;-80
2021/10/09 17:54:16;;;;;;;20.60;12.13;;;11.50;99.90;;;;;;4937802;29;20268;-79
2021/10/09 17:56:42;;;;;;;22.30;12.73;;;11.40;99.90;;;;;;4937326;29;20974;-79
2021/10/09 17:59:08;;;;;;;20.37;13.37;;;11.20;99.90;;;;;;4929929;29;20651;-80
2021/10/09 18:01:34;;;;;;;22.53;12.90;;;11.10;99.90;;;;;;4938045;29;20682;-80
2021/10/09 18:03:59;;;;;;;19.87;11.93;;;11.00;99.90;;;;;;4938268;29;20749;-80
2021/10/09 18:06:25;;;;;;;16.30;12.00;;;10.90;99.90;;;;;;4938596;29;20192;-80
2021/10/09 18:08:51;;;;;;;14.93;11.30;;;10.80;99.90;;;;;;4938435;29;20181;-79
2021/10/09 18:11:17;;;;;;;18.83;11.77;;;10.70;99.90;;;;;;4936885;29;20208;-79
2021/10/09 18:13:44;;;;;;;23.60;11.10;;;10.60;99.90;;;;;;4937486;29;20516;-79
2021/10/09 18:16:12;;;;;;;22.43;12.43;;;10.50;99.90;;;;;;4938174;29;20472;-79
2021/10/09 18:18:38;;;;;;;21.37;12.97;;;10.40;99.90;;;;;;4937850;29;20434;-79
2021/10/09 18:21:04;;;;;;;15.60;12.73;;;10.30;99.90;;;;;;4937573;29;20443;-79
2021/10/09 18:23:30;;;;;;;18.25;13.52;;;10.30;99.90;;;;;;4938778;29;20437;-79
2021/10/09 18:25:58;;;;;;;14.43;12.90;;;10.20;99.90;;;;;;4938290;29;20181;-78
2021/10/09 18:28:25;;;;;;;18.43;13.00;;;10.10;99.90;;;;;;4936852;29;20413;-80
2021/10/09 18:30:51;;;;;;;20.73;14.73;;;10.00;99.90;;;;;;4935944;29;20436;-80
2021/10/09 18:33:16;;;;;;;22.87;14.33;;;10.00;99.90;;;;;;4936889;29;20791;-80
2021/10/09 18:35:42;;;;;;;18.27;13.50;;;9.90;99.90;;;;;;4938314;29;20195;-80
2021/10/09 18:38:07;;;;;;;20.73;14.03;;;9.80;99.90;;;;;;4938118;29;20274;-79
2021/10/09 18:40:33;;;;;;;19.23;12.63;;;9.70;99.90;;;;;;4938195;29;20188;-79
2021/10/09 18:42:58;;;;;;;17.53;12.23;;;9.70;99.90;;;;;;4938115;29;20213;-80
2021/10/09 18:45:24;;;;;;;18.40;11.90;;;9.60;99.90;;;;;;4938394;29;20182;-79
2021/10/09 18:47:50;;;;;;;21.13;12.47;;;9.60;99.90;;;;;;4938332;29;20581;-80
2021/10/09 18:50:16;;;;;;;18.70;13.20;;;9.50;99.90;;;;;;4937396;29;20462;-79
2021/10/09 18:52:42;;;;;;;19.90;12.77;;;9.50;99.90;;;;;;4937642;29;20211;-80
2021/10/09 18:55:07;;;;;;;22.40;14.00;;;9.40;99.90;;;;;;4938243;29;20592;-80
2021/10/09 18:57:34;;;;;;;18.53;14.23;;;9.30;99.90;;;;;;4938463;29;20494;-79
2021/10/09 19:00:00;;;;;;;18.20;13.97;;;9.20;99.90;;;;;;4937333;29;20531;-79
2021/10/09 19:02:26;;;;;;;18.93;13.33;;;9.20;99.90;;;;;;4937554;29;20483;-81
2021/10/09 19:04:52;;;;;;;21.10;14.43;;;9.20;99.90;;;;;;4938326;29;20217;-82
2021/10/09 19:07:18;;;;;;;20.93;13.80;;;9.10;99.90;;;;;;4936485;29;20187;-82
2021/10/09 19:09:43;;;;;;;23.70;15.20;;;9.00;99.90;;;;;;4939608;29;20426;-80
2021/10/09 19:12:09;;;;;;;24.23;15.20;;;9.00;99.90;;;;;;4936562;29;20211;-77
2021/10/09 19:14:34;;;;;;;20.00;16.60;;;8.90;99.90;;;;;;4936108;29;20542;-80
2021/10/09 19:17:00;;;;;;;21.13;14.80;;;8.90;99.90;;;;;;4937295;29;20194;-80
2021/10/09 19:19:26;;;;;;;21.40;14.43;;;8.80;99.90;;;;;;4937368;29;20231;-78
2021/10/09 19:21:54;;;;;;;22.13;15.10;;;8.80;99.90;;;;;;4935698;29;20443;-80
2021/10/09 19:24:24;;;;;;;26.93;15.00;;;8.70;99.90;;;;;;4934606;29;20261;-78